createdAt,value
2022-10-15T00:00:18.918Z,100.00
2022-10-15T00:04:16.061Z,100.00
2022-10-15T00:07:54.913Z,100.00
2022-10-15T00:11:32.485Z,100.00
2022-10-15T00:15:11.365Z,100.00
2022-10-15T00:18:51.935Z,100.00
2022-10-15T00:22:28.254Z,100.00
2022-10-15T00:26:15.794Z,100.00
2022-10-15T00:29:51.959Z,100.00
2022-10-15T00:33:29.971Z,100.00
2022-10-15T00:37:08.625Z,100.00
2022-10-15T00:40:44.759Z,100.00
2022-10-15T00:44:25.949Z,100.00
2022-10-15T00:48:01.909Z,100.00
2022-10-15T00:51:45.462Z,100.00
2022-10-15T00:55:32.521Z,100.00
2022-10-15T00:59:11.849Z,100.00
2022-10-15T01:02:48.178Z,100.00
2022-10-15T01:06:27.144Z,100.00
2022-10-15T01:10:06.047Z,100.00
2022-10-15T01:13:43.129Z,100.00
2022-10-15T01:17:41.961Z,100.00
2022-10-15T01:21:36.958Z,100.00
2022-10-15T01:25:46.204Z,100.00
2022-10-15T01:29:38.935Z,100.00
2022-10-15T01:33:20.986Z,100.00
2022-10-15T01:37:13.389Z,100.00
2022-10-15T01:41:09.047Z,100.00
2022-10-15T01:44:57.897Z,100.00
2022-10-15T01:48:49.645Z,100.00
2022-10-15T01:52:35.878Z,100.00
2022-10-15T01:56:41.982Z,100.00
2022-10-15T02:00:41.722Z,100.00
2022-10-15T02:04:40.089Z,100.00
2022-10-15T02:09:12.370Z,100.00
2022-10-15T02:13:19.604Z,100.00
2022-10-15T02:17:21.673Z,100.00
2022-10-15T02:21:35.305Z,100.00
2022-10-15T02:25:35.519Z,100.00
2022-10-15T02:29:37.106Z,100.00
2022-10-15T02:33:35.159Z,100.00
2022-10-15T02:37:44.409Z,100.00
2022-10-15T02:41:42.393Z,100.00
2022-10-15T02:45:39.849Z,100.00
2022-10-15T02:49:36.315Z,100.00
2022-10-15T02:53:34.067Z,100.00
2022-10-15T02:57:30.825Z,100.00
2022-10-15T03:01:28.011Z,100.00
2022-10-15T03:05:25.307Z,100.00
2022-10-15T03:09:22.398Z,100.00
2022-10-15T03:13:19.583Z,100.00
2022-10-15T03:17:17.018Z,100.00
2022-10-15T03:21:14.139Z,100.00
2022-10-15T03:25:11.572Z,100.00
2022-10-15T03:29:09.110Z,100.00
2022-10-15T03:33:06.474Z,100.00
2022-10-15T03:37:03.230Z,100.00
2022-10-15T03:41:01.827Z,100.00
2022-10-15T03:44:59.389Z,100.00
2022-10-15T03:48:56.241Z,100.00
2022-10-15T03:52:54.546Z,100.00
2022-10-15T03:56:51.705Z,100.00
2022-10-15T04:00:49.920Z,100.00
2022-10-15T04:04:46.615Z,100.00
2022-10-15T04:08:43.697Z,100.00
2022-10-15T04:12:40.835Z,100.00
2022-10-15T04:16:38.840Z,100.00
2022-10-15T04:20:35.974Z,100.00
2022-10-15T04:24:32.719Z,100.00
2022-10-15T04:28:30.790Z,100.00
2022-10-15T04:32:28.778Z,100.00
2022-10-15T04:36:25.554Z,100.00
2022-10-15T04:40:24.326Z,100.00
2022-10-15T04:44:21.323Z,100.00
2022-10-15T04:48:19.699Z,100.00
2022-10-15T04:52:16.830Z,100.00
2022-10-15T04:56:18.184Z,100.00
2022-10-15T04:59:56.942Z,100.00
2022-10-15T05:03:55.612Z,100.00
2022-10-15T05:07:33.008Z,100.00
2022-10-15T05:11:18.425Z,100.00
2022-10-15T05:14:55.579Z,100.00
2022-10-15T05:18:33.097Z,100.00
2022-10-15T05:22:10.677Z,100.00
2022-10-15T05:25:51.627Z,100.00
2022-10-15T05:29:31.098Z,100.00
2022-10-15T05:33:08.811Z,100.00
2022-10-15T05:36:45.689Z,100.00
2022-10-15T05:40:48.846Z,100.00
2022-10-15T05:44:01.094Z,100.00
2022-10-15T05:47:39.105Z,100.00
2022-10-15T05:51:17.732Z,100.00
2022-10-15T05:54:54.123Z,100.00
2022-10-15T05:58:37.197Z,100.00
2022-10-15T06:02:16.494Z,100.00
2022-10-15T06:05:52.789Z,100.00
2022-10-15T06:09:30.855Z,100.00
2022-10-15T06:13:09.374Z,100.00
2022-10-15T06:16:46.365Z,100.00
2022-10-15T06:20:23.554Z,100.00
2022-10-15T06:24:01.709Z,100.00
2022-10-15T06:27:39.570Z,100.00
2022-10-15T06:31:17.095Z,100.00
2022-10-15T06:34:54.893Z,100.00
2022-10-15T06:38:34.880Z,100.00
2022-10-15T06:42:10.999Z,100.00
2022-10-15T06:45:48.703Z,100.00
2022-10-15T06:49:26.517Z,100.00
2022-10-15T06:53:05.034Z,100.00
2022-10-15T06:56:41.732Z,100.00
2022-10-15T07:00:19.675Z,100.00
2022-10-15T07:03:57.132Z,99.63
2022-10-15T07:07:34.937Z,98.36
2022-10-15T07:11:13.057Z,97.45
2022-10-15T07:14:50.540Z,95.92
2022-10-15T07:18:28.443Z,94.88
2022-10-15T07:22:06.857Z,93.74
2022-10-15T07:25:43.368Z,93.11
2022-10-15T07:29:21.051Z,92.00
2022-10-15T07:32:59.766Z,91.54
2022-10-15T07:36:36.760Z,90.69
2022-10-15T07:40:14.369Z,90.48
2022-10-15T07:43:54.210Z,88.09
2022-10-15T07:47:31.405Z,86.81
2022-10-15T07:51:08.356Z,85.74
2022-10-15T07:54:45.583Z,86.16
2022-10-15T07:58:24.388Z,88.05
2022-10-15T08:02:03.407Z,89.22
2022-10-15T08:05:40.223Z,91.00
2022-10-15T08:09:17.641Z,92.88
2022-10-15T08:12:54.812Z,93.57
2022-10-15T08:16:32.412Z,93.43
2022-10-15T08:20:11.037Z,93.53
2022-10-15T08:23:49.062Z,93.49
2022-10-15T08:27:26.438Z,92.32
2022-10-15T08:31:05.883Z,90.34
2022-10-15T08:34:42.474Z,86.86
2022-10-15T08:38:21.842Z,88.69
2022-10-15T08:42:05.138Z,88.84
2022-10-15T08:45:46.132Z,85.37
2022-10-15T08:49:38.876Z,81.56
2022-10-15T08:53:20.672Z,78.37
2022-10-15T08:57:30.017Z,76.56
2022-10-15T09:01:37.831Z,74.88
2022-10-15T09:05:24.231Z,74.32
2022-10-15T09:09:18.866Z,74.58
2022-10-15T09:13:04.933Z,73.81
2022-10-15T09:16:45.605Z,71.54
2022-10-15T09:20:31.198Z,70.41
2022-10-15T09:24:12.837Z,70.50
2022-10-15T09:27:51.617Z,71.09
2022-10-15T09:31:41.095Z,71.87
2022-10-15T09:35:24.528Z,73.63
2022-10-15T09:39:12.688Z,71.88
2022-10-15T09:42:51.226Z,70.50
2022-10-15T09:46:28.678Z,70.92
2022-10-15T09:50:07.647Z,72.23
2022-10-15T09:54:16.167Z,74.45
2022-10-15T09:57:55.528Z,76.70
2022-10-15T10:01:33.614Z,77.30
2022-10-15T10:05:19.221Z,78.33
2022-10-15T10:09:00.132Z,79.16
2022-10-15T10:12:37.831Z,78.72
2022-10-15T10:16:17.078Z,78.77
2022-10-15T10:20:17.014Z,78.48
2022-10-15T10:23:54.460Z,77.40
2022-10-15T10:27:31.021Z,77.70
2022-10-15T10:31:10.522Z,77.62
2022-10-15T10:34:51.620Z,75.48
2022-10-15T10:38:32.955Z,72.64
2022-10-15T10:42:22.415Z,69.13
2022-10-15T10:46:19.998Z,63.13
2022-10-15T10:49:42.378Z,61.72
2022-10-15T10:53:25.675Z,63.64
2022-10-15T10:57:01.989Z,63.72
2022-10-15T11:00:42.800Z,66.75
2022-10-15T11:04:32.978Z,64.63
2022-10-15T11:08:22.379Z,65.13
2022-10-15T11:11:59.678Z,61.04
2022-10-15T11:15:39.428Z,58.29
2022-10-15T11:23:45.116Z,56.54
2022-10-15T11:27:44.216Z,56.07
2022-10-15T11:31:37.128Z,52.78
2022-10-15T11:35:53.396Z,52.92
2022-10-15T11:39:54.128Z,49.45
2022-10-15T11:43:57.024Z,55.09
2022-10-15T11:47:36.474Z,55.28
2022-10-15T11:51:27.793Z,56.26
2022-10-15T11:55:22.204Z,57.15
2022-10-15T11:59:52.019Z,58.26
2022-10-15T12:02:39.487Z,60.01
2022-10-15T12:06:20.475Z,60.92
2022-10-15T12:10:09.181Z,61.57
2022-10-15T12:14:00.397Z,60.87
2022-10-15T12:17:55.398Z,60.68
2022-10-15T12:21:39.062Z,61.08
2022-10-15T12:25:34.779Z,61.18
2022-10-15T12:29:25.885Z,61.64
2022-10-15T12:33:21.930Z,62.04
2022-10-15T12:37:15.184Z,62.69
2022-10-15T12:41:12.352Z,63.53
2022-10-15T12:44:50.349Z,63.59
2022-10-15T12:48:32.719Z,64.07
2022-10-15T12:52:59.116Z,64.82
2022-10-15T12:56:41.976Z,64.85
2022-10-15T13:00:32.310Z,64.55
2022-10-15T13:04:08.909Z,64.21
2022-10-15T13:07:47.788Z,64.04
2022-10-15T13:11:26.988Z,63.55
2022-10-15T13:15:06.588Z,63.41
2022-10-15T13:18:50.487Z,63.12
2022-10-15T13:22:31.457Z,63.34
2022-10-15T13:26:27.633Z,63.35
2022-10-15T13:30:14.020Z,63.35
2022-10-15T13:33:58.935Z,62.99
2022-10-15T13:37:40.678Z,62.90
2022-10-15T13:41:24.565Z,62.55
2022-10-15T13:45:18.871Z,62.44
2022-10-15T13:49:02.477Z,62.25
2022-10-15T13:52:47.608Z,62.53
2022-10-15T13:56:29.008Z,62.83
2022-10-15T14:00:06.367Z,63.32
2022-10-15T14:03:52.258Z,63.64
2022-10-15T14:07:28.844Z,63.81
2022-10-15T14:11:06.770Z,63.69
2022-10-15T14:14:48.313Z,63.37
2022-10-15T14:18:49.328Z,63.49
2022-10-15T14:22:28.776Z,63.64
2022-10-15T14:26:05.917Z,63.50
2022-10-15T14:30:13.985Z,64.05
2022-10-15T14:33:52.141Z,64.34
2022-10-15T14:37:33.820Z,64.79
2022-10-15T14:41:30.848Z,65.44
2022-10-15T14:45:32.185Z,65.08
2022-10-15T14:49:22.772Z,65.31
2022-10-15T14:53:08.564Z,65.39
2022-10-15T14:56:45.614Z,65.10
2022-10-15T15:00:26.175Z,65.24
2022-10-15T15:04:02.759Z,65.24
2022-10-15T15:07:41.318Z,65.68
2022-10-15T15:11:25.841Z,65.87
2022-10-15T15:15:03.075Z,66.41
2022-10-15T15:18:42.954Z,66.42
2022-10-15T15:22:35.789Z,66.75
2022-10-15T15:26:12.465Z,67.11
2022-10-15T15:29:51.871Z,67.40
2022-10-15T15:33:29.456Z,67.39
2022-10-15T15:37:14.506Z,67.34
2022-10-15T15:40:51.332Z,67.53
2022-10-15T15:44:28.518Z,67.65
2022-10-15T15:48:06.114Z,67.63
2022-10-15T15:51:43.584Z,67.58
2022-10-15T15:55:21.567Z,67.71
2022-10-15T15:58:58.907Z,68.37
2022-10-15T16:02:38.213Z,68.58
2022-10-15T16:06:14.604Z,69.11
2022-10-15T16:09:52.005Z,69.70
2022-10-15T16:13:31.353Z,70.34
2022-10-15T16:17:07.423Z,71.00
2022-10-15T16:20:48.529Z,71.74
2022-10-15T16:24:25.401Z,72.50
2022-10-15T16:28:03.113Z,73.32
2022-10-15T16:31:40.794Z,74.00
2022-10-15T16:35:18.354Z,75.00
2022-10-15T16:38:57.652Z,75.77
2022-10-15T16:42:33.799Z,76.13
2022-10-15T16:46:11.931Z,76.74
2022-10-15T16:49:49.213Z,76.82
2022-10-15T16:53:28.037Z,77.63
2022-10-15T16:57:04.619Z,77.48
2022-10-15T17:00:42.012Z,77.74
2022-10-15T17:04:20.249Z,78.05
2022-10-15T17:07:57.525Z,78.39
2022-10-15T17:11:40.996Z,78.95
2022-10-15T17:15:17.845Z,79.35
2022-10-15T17:18:57.079Z,79.90
2022-10-15T17:22:35.204Z,81.79
2022-10-15T17:26:14.613Z,85.39
2022-10-15T17:29:50.598Z,88.71
2022-10-15T17:33:28.715Z,90.66
2022-10-15T17:37:25.785Z,93.04
2022-10-15T17:40:43.971Z,94.72
2022-10-15T17:44:21.514Z,95.45
2022-10-15T17:47:59.141Z,95.69
2022-10-15T17:51:38.309Z,96.47
2022-10-15T17:55:14.641Z,96.74
2022-10-15T17:58:52.760Z,97.09
2022-10-15T18:02:31.774Z,97.16
2022-10-15T18:06:12.574Z,97.08
2022-10-15T18:09:49.860Z,96.96
2022-10-15T18:13:26.490Z,96.57
2022-10-15T18:17:05.361Z,96.57
2022-10-15T18:20:45.723Z,96.63
2022-10-15T18:24:25.345Z,96.68
2022-10-15T18:28:01.857Z,96.59
2022-10-15T18:31:39.352Z,96.38
2022-10-15T18:35:17.368Z,96.13
2022-10-15T18:38:55.739Z,95.88
2022-10-15T18:42:32.649Z,95.58
2022-10-15T18:46:10.758Z,95.50
2022-10-15T18:49:47.977Z,95.37
2022-10-15T18:53:26.374Z,94.79
2022-10-15T18:57:04.128Z,94.84
2022-10-15T19:00:40.865Z,94.40
2022-10-15T19:04:20.005Z,94.20
2022-10-15T19:07:56.465Z,93.95
2022-10-15T19:11:35.536Z,93.87
2022-10-15T19:15:12.077Z,93.77
2022-10-15T19:18:49.386Z,93.72
2022-10-15T19:22:28.894Z,93.86
2022-10-15T19:26:11.878Z,93.53
2022-10-15T19:29:48.019Z,93.29
2022-10-15T19:33:27.075Z,92.85
2022-10-15T19:37:04.545Z,92.68
2022-10-15T19:40:43.734Z,92.78
2022-10-15T19:44:26.131Z,92.27
2022-10-15T19:48:05.539Z,92.06
2022-10-15T19:51:42.117Z,91.77
2022-10-15T19:55:39.653Z,91.61
2022-10-15T19:58:59.434Z,91.42
2022-10-15T20:02:37.374Z,90.83
2022-10-15T20:06:13.545Z,90.32
2022-10-15T20:09:51.153Z,89.98
2022-10-15T20:13:29.057Z,89.81
2022-10-15T20:17:06.451Z,89.50
2022-10-15T20:20:46.436Z,89.28
2022-10-15T20:24:22.773Z,89.14
2022-10-15T20:28:00.084Z,88.74
2022-10-15T20:31:37.890Z,88.43
2022-10-15T20:35:17.830Z,88.43
2022-10-15T20:38:57.526Z,88.57
2022-10-15T20:42:38.098Z,88.79
2022-10-15T20:46:22.172Z,88.80
2022-10-15T20:49:58.478Z,88.60
2022-10-15T20:53:36.903Z,88.49
2022-10-15T20:57:14.142Z,88.29
2022-10-15T21:00:51.696Z,88.40
2022-10-15T21:04:30.311Z,88.25
2022-10-15T21:08:06.999Z,87.93
2022-10-15T21:11:46.844Z,87.54
2022-10-15T21:15:23.324Z,87.33
2022-10-15T21:19:01.225Z,86.70
2022-10-15T21:22:39.628Z,86.05
2022-10-15T21:26:18.361Z,85.53
2022-10-15T21:29:54.277Z,85.11
2022-10-15T21:33:32.754Z,85.02
2022-10-15T21:37:11.589Z,84.52
2022-10-15T21:40:51.647Z,84.07
2022-10-15T21:44:27.720Z,83.56
2022-10-15T21:48:06.023Z,83.27
2022-10-15T21:51:43.003Z,82.63
2022-10-15T21:55:21.855Z,82.38
2022-10-15T21:59:02.000Z,82.38
2022-10-15T22:02:37.974Z,82.11
2022-10-15T22:06:16.692Z,81.88
2022-10-15T22:09:53.683Z,81.73
2022-10-15T22:13:31.695Z,81.34
2022-10-15T22:17:08.976Z,80.99
2022-10-15T22:20:47.320Z,80.85
2022-10-15T22:24:24.388Z,80.92
2022-10-15T22:28:01.987Z,81.01
2022-10-15T22:31:39.498Z,81.22
2022-10-15T22:35:17.803Z,81.25
2022-10-15T22:39:02.101Z,81.35
2022-10-15T22:42:39.366Z,81.68
2022-10-15T22:46:17.064Z,81.77
2022-10-15T22:49:55.009Z,81.91
2022-10-15T22:53:33.393Z,81.27
2022-10-15T22:57:11.718Z,80.75
2022-10-15T23:00:48.146Z,81.20
2022-10-15T23:04:26.638Z,81.48
2022-10-15T23:08:03.733Z,81.70
2022-10-15T23:11:41.494Z,81.43
2022-10-15T23:15:18.993Z,81.29
2022-10-15T23:18:59.993Z,81.49
2022-10-15T23:22:37.671Z,81.47
2022-10-15T23:26:17.274Z,81.63
2022-10-15T23:30:01.941Z,81.98
2022-10-15T23:33:50.576Z,82.42
2022-10-15T23:37:27.689Z,82.22
2022-10-15T23:41:07.544Z,82.32
2022-10-15T23:44:43.768Z,82.09
2022-10-15T23:48:22.176Z,82.19
2022-10-15T23:52:00.503Z,82.27
2022-10-15T23:55:43.107Z,82.11
2022-10-15T23:59:17.395Z,82.45
